Chengdu, China
Current Conditions -  °F | °C
As of 7:00 PM on Sunday 23 Nov 2014 (Local Time) from ZUUU Reporting Station
Haze Haze  
Wind Chill: 57°   Ceiling: Unl
Heat Index: 57°   Visibility: 2.8mi
Dew Point: 50°   Wind: 2mph
Humidity: 77%   Direction: NA
Pressure: 30.03"   Gusts: NA
Location:  30.67°N, 104.07°E
Report Text: ZUUU 231100Z VRB01MPS 4500 BR SCT050 14/10 Q1017 NOSIG
Loading
Personal Weather Stations






























Interactive Weather Map New forecast layout! Learn more

10-Day Weather Forecast

Advertisements
Track Severe Weather on mobile